TimeHST,TemperatureF,Dew PointF,Humidity,Sea Level PressureIn,VisibilityMPH,Wind Direction,Wind SpeedMPH,Gust SpeedMPH,PrecipitationIn,Events,Conditions,WindDirDegrees,DateUTC
12:55 AM,59.2,55.9,89,30.12,10.0,West,5.8,-,N/A,,Clear,270,2013-02-03 10:55:00
1:55 AM,57.6,54.9,91,30.10,10.0,WNW,4.6,-,N/A,,Clear,290,2013-02-03 11:55:00
2:55 AM,58.1,55.0,90,30.09,10.0,NNW,3.5,-,N/A,,Clear,330,2013-02-03 12:55:00
3:55 AM,56.8,54.3,91,30.08,10.0,NW,3.5,-,N/A,,Clear,310,2013-02-03 13:55:00
4:55 AM,57.2,54.3,90,30.10,10.0,Calm,Calm,-,N/A,,Clear,0,2013-02-03 14:55:00
5:55 AM,54.0,51.8,92,30.12,10.0,WSW,3.5,-,N/A,,Clear,250,2013-02-03 15:55:00
6:55 AM,55.8,53.4,92,30.14,10.0,Calm,Calm,-,N/A,,Clear,0,2013-02-03 16:55:00
7:55 AM,57.9,55.9,93,30.16,10.0,WNW,3.5,-,N/A,,Clear,290,2013-02-03 17:55:00
8:55 AM,65.1,59.5,82,30.16,10.0,Calm,Calm,-,N/A,,Clear,0,2013-02-03 18:55:00
9:55 AM,69.4,58.3,68,30.17,10.0,ENE,9.2,-,N/A,,Clear,70,2013-02-03 19:55:00
10:55 AM,70.7,57.6,63,30.16,10.0,East,10.4,-,N/A,,Clear,80,2013-02-03 20:55:00
11:55 AM,73.0,57.4,58,30.13,10.0,East,10.4,-,N/A,,Clear,80,2013-02-03 21:55:00
12:55 PM,73.9,56.3,54,30.10,10.0,East,11.5,-,N/A,,Clear,90,2013-02-03 22:55:00
1:55 PM,74.7,57.4,55,30.08,10.0,East,10.4,-,N/A,,Clear,100,2013-02-03 23:55:00
2:55 PM,74.7,56.1,52,30.07,10.0,East,8.1,-,N/A,,Clear,80,2013-02-04 00:55:00
3:55 PM,74.1,56.3,54,30.08,10.0,NE,17.3,-,N/A,,Clear,50,2013-02-04 01:55:00
4:55 PM,71.4,56.1,58,30.09,10.0,NE,6.9,-,N/A,,Clear,50,2013-02-04 02:55:00
5:55 PM,68.9,56.5,65,30.12,10.0,NE,8.1,-,N/A,,Clear,40,2013-02-04 03:55:00
6:55 PM,67.3,56.1,67,30.13,10.0,NNE,10.4,20.7,N/A,,Clear,20,2013-02-04 04:55:00
7:55 PM,67.3,55.9,67,30.14,10.0,NNW,5.8,17.3,N/A,,Overcast,330,2013-02-04 05:55:00
8:55 PM,66.2,55.6,69,30.13,10.0,NW,6.9,-,N/A,,Scattered Clouds,320,2013-02-04 06:55:00
9:55 PM,66.6,55.6,68,30.13,10.0,Variable,6.9,-,N/A,,Clear,0,2013-02-04 07:55:00
10:55 PM,65.8,55.4,69,30.13,10.0,Calm,Calm,-,N/A,,Clear,0,2013-02-04 08:55:00